Aérodrome :
LOGIN :

S'inscrire | Disclaimer

   EN    FR    IT 

 










Légende :    VFR   VFR Marginal   IFR   IFR Intensif   IFR Très Intensif
Visi : 
Plafond : 
>= 8 km
>= 3000ft
5 à 8 km
1000 à 3000 ft
1500m à 5 km
500 à 1000 ft
800 à 1500m
200 à 500 ft
< 800m
< 200 ft
Symboles :   Orages  Brouillard  Fortes neiges  Fortes précipitations  Vent > 20 kt
SIGMETs :   Divers  Orages  Givrage  Turbulence  Onde Orograph.  Cendres Volcan.






- Altitude de l'aérodrome : 160 ft
- Code IATA : FMO


EDDG - Münster Osnabrück Int.

DERNIER METAR :
  • 070950Z 24009KT 9999 -SHRA FEW030CB SCT032 14/08 Q1005 NOSIG

METARs EXPIRÉS :
  • 070920Z 22012KT 180V260 9999 -SHRA FEW025TCU SCT030 BKN048 14/07 Q1005 NOSIG
  • 070850Z 20010KT 170V240 9999 -SHRA FEW025TCU SCT028 14/07 Q1004 NOSIG
  • 070820Z 21012KT 180V250 9999 VCSH FEW025TCU SCT028 13/07 Q1004 NOSIG
  • 070750Z 23011KT 9999 FEW025 13/07 Q1004 NOSIG
  • 070720Z 21010KT 180V240 9999 -SHRA FEW025TCU SCT028 BKN046 12/07 Q1004 NOSIG

TAF TAF EDDG
Valide du 07 à 06h jusqu'au 08 à 06h UTC


070500Z 0706/0806 18008KT 9999 SCT040
BECMG 0707/0709 23013KT
TEMPO 0709/0714 24015G25KT
PROB30
TEMPO 0710/0714 24020G30KT 4000 SHRA SCT030CB
BECMG 0716/0718 26008KT
BECMG 0718/0720 VRB02KT
PROB30
TEMPO 0803/0806 4000 BR



MET'MAP, la Météo Aéronautique d'un coup d'oeil ! - Copyright ORBIFLY Décembre 2007 - Disclaimer

ORBIFLY MET'MAP TEAM :

Programmation & Développement : Alexandra Zaïnal
Sur une idée originale de : Baudouin d'Aumeries
Assistance à la programmation : Marc-Olivier Méhu
Soutien technique & logistique : Manuel Goepfert

Contact : metmap@orbifly.com




SOURCES & CREDITS :

   NOAA